createdAt,value
2023-05-02T04:06:10.416Z,99130.95
2023-05-02T04:20:47.644Z,99130.55
2023-05-02T04:23:18.085Z,99136.42
2023-05-02T04:25:56.781Z,99137.91
2023-05-02T04:28:33.868Z,99139.27
2023-05-02T04:31:01.982Z,99140.20
2023-05-02T04:33:29.299Z,99138.39
2023-05-02T04:35:57.064Z,99140.84
2023-05-02T04:38:24.826Z,99137.12
2023-05-02T04:40:52.712Z,99140.45
2023-05-02T04:43:24.962Z,99138.10
2023-05-02T04:45:59.121Z,99135.77
2023-05-02T04:48:34.210Z,99133.78
2023-05-02T04:51:01.562Z,99133.52
2023-05-02T04:53:30.251Z,99135.45
2023-05-02T04:55:57.905Z,99138.30
2023-05-02T04:58:26.084Z,99136.65
2023-05-02T05:01:02.273Z,99138.69
2023-05-02T05:03:31.043Z,99138.46
2023-05-02T05:05:58.952Z,99139.45
2023-05-02T05:08:26.912Z,99140.17
2023-05-02T05:10:54.237Z,99139.65
2023-05-02T05:13:24.925Z,99141.00
2023-05-02T05:15:52.786Z,99143.55
2023-05-02T05:18:23.752Z,99143.23
2023-05-02T05:20:51.287Z,99141.69
2023-05-02T05:23:18.497Z,99143.59
2023-05-02T05:25:45.885Z,99141.72
2023-05-02T05:28:15.768Z,99141.06
2023-05-02T05:30:42.845Z,99141.48
2023-05-02T05:33:12.592Z,99143.55
2023-05-02T05:35:59.832Z,99139.04
2023-05-02T05:38:26.979Z,99137.73
2023-05-02T05:40:57.466Z,99141.75
2023-05-02T05:43:26.615Z,99144.09
2023-05-02T05:45:54.577Z,99145.29
2023-05-02T05:48:22.052Z,99144.70
2023-05-02T05:50:49.472Z,99140.48
2023-05-02T05:53:38.052Z,99147.93
2023-05-02T05:56:11.638Z,99146.22
2023-05-02T05:58:41.370Z,99155.38
2023-05-02T06:01:10.143Z,99149.88
2023-05-02T06:03:37.446Z,99152.59
2023-05-02T06:06:07.954Z,99143.39
2023-05-02T06:09:15.191Z,99140.85
2023-05-02T06:12:06.057Z,99146.86
2023-05-02T06:14:34.340Z,99144.61
2023-05-02T06:17:01.803Z,99146.14
2023-05-02T06:19:28.978Z,99142.85
2023-05-02T06:21:56.136Z,99150.41
2023-05-02T06:24:23.218Z,99147.19
2023-05-02T06:26:51.799Z,99149.91
2023-05-02T06:29:19.023Z,99150.15
2023-05-02T06:31:46.380Z,99141.14
2023-05-02T06:34:23.277Z,99142.27
2023-05-02T06:36:55.821Z,99144.52
2023-05-02T06:39:22.814Z,99142.45
2023-05-02T06:41:49.813Z,99144.02
2023-05-02T07:07:41.016Z,99142.89
2023-05-02T07:10:28.649Z,99149.51
2023-05-02T07:12:55.991Z,99145.23
2023-05-02T07:15:22.950Z,99139.17
2023-05-02T07:17:50.501Z,99149.52
2023-05-02T07:20:20.674Z,99154.85
2023-05-02T07:22:47.657Z,99146.84
2023-05-02T07:25:14.751Z,99148.11
2023-05-02T07:27:42.422Z,99153.20
2023-05-02T07:30:17.958Z,99150.55
2023-05-02T07:32:46.632Z,99146.02
2023-05-02T07:35:13.843Z,99147.88
2023-05-02T07:37:44.035Z,99156.88
2023-05-02T07:40:15.599Z,99148.89
2023-05-02T07:42:42.843Z,99157.35
2023-05-02T07:45:12.413Z,99144.31
2023-05-02T07:47:42.545Z,99142.61
2023-05-02T07:50:10.310Z,99152.30
2023-05-02T07:52:37.287Z,99153.51
2023-05-02T07:55:10.044Z,99146.36
2023-05-02T07:57:37.826Z,99149.35
2023-05-02T08:00:10.161Z,99141.50
2023-05-02T08:03:03.753Z,99142.70
2023-05-02T08:05:31.019Z,99141.08
2023-05-02T08:07:58.219Z,99144.39
2023-05-02T08:10:25.773Z,99137.61
2023-05-02T08:12:53.417Z,99143.60
2023-05-02T08:15:21.206Z,99128.80
2023-05-02T08:17:48.554Z,99135.05
2023-05-02T08:20:15.935Z,99141.10
2023-05-02T08:22:43.006Z,99148.27
2023-05-02T08:25:10.107Z,99148.42
2023-05-02T08:27:37.252Z,99137.15
2023-05-02T08:30:08.138Z,99132.79
2023-05-02T08:32:37.303Z,99134.14
2023-05-02T08:35:07.552Z,99127.67
2023-05-02T08:37:36.575Z,99124.17
2023-05-02T08:40:11.655Z,99125.03
2023-05-02T08:42:39.464Z,99125.25
2023-05-02T08:45:07.084Z,99122.28
2023-05-02T08:47:34.152Z,99125.63
2023-05-02T08:50:23.550Z,99115.20
2023-05-02T08:52:53.691Z,99122.36
2023-05-02T08:55:27.945Z,99110.70
2023-05-02T08:57:58.018Z,99111.43
2023-05-02T09:00:28.531Z,99105.68
2023-05-02T09:03:07.053Z,99101.42
2023-05-02T09:05:45.478Z,99104.92
2023-05-02T09:08:14.470Z,99102.30
2023-05-02T09:10:43.180Z,99101.91
2023-05-02T09:13:34.907Z,99098.02
2023-05-02T09:16:06.228Z,99108.80
2023-05-02T09:18:35.728Z,99103.80
2023-05-02T09:21:19.763Z,99101.52
2023-05-02T09:23:49.842Z,99090.63
2023-05-02T09:26:24.991Z,99103.67
2023-05-02T09:28:55.400Z,99091.14
2023-05-02T09:33:57.030Z,99102.13
2023-05-02T09:36:25.304Z,99098.33
2023-05-02T09:38:53.166Z,99111.54
2023-05-02T09:41:22.208Z,99099.10
2023-05-02T09:44:00.343Z,99099.20
2023-05-02T09:46:49.241Z,99104.86
2023-05-02T09:49:19.610Z,99112.31
2023-05-02T09:51:49.074Z,99093.27
2023-05-02T09:54:40.460Z,99101.27
2023-05-02T09:57:08.939Z,99102.30
2023-05-02T09:59:36.944Z,99097.38
2023-05-02T10:02:30.570Z,99101.15
2023-05-02T10:05:20.277Z,99101.86
2023-05-02T10:07:47.490Z,99097.58
2023-05-02T10:10:17.934Z,99096.25
2023-05-02T10:13:12.244Z,99094.63
2023-05-02T10:15:44.591Z,99098.73
2023-05-02T10:18:21.001Z,99094.20
2023-05-02T10:21:00.010Z,99093.27
2023-05-02T10:23:28.508Z,99086.07
2023-05-02T10:26:15.932Z,99086.41
2023-05-02T10:28:43.735Z,99091.05
2023-05-02T10:31:14.030Z,99087.63
2023-05-02T10:33:42.435Z,99079.14
2023-05-02T10:36:10.835Z,99083.16
2023-05-02T10:38:37.944Z,99072.23
2023-05-02T10:41:26.524Z,99072.88
2023-05-02T10:43:58.490Z,99067.40
2023-05-02T10:46:42.310Z,99071.66
2023-05-02T10:50:06.038Z,99061.31
2023-05-02T10:52:45.563Z,99063.48
2023-05-02T10:55:24.215Z,99075.52
2023-05-02T10:58:00.593Z,99065.36
2023-05-02T11:00:52.979Z,99053.00
2023-05-02T11:03:59.036Z,99050.02
2023-05-02T11:06:28.017Z,99059.55
2023-05-02T11:09:28.099Z,99065.65
2023-05-02T11:12:35.094Z,99058.20
2023-05-02T11:15:03.284Z,99062.32
2023-05-02T11:17:33.254Z,99057.66
2023-05-02T11:20:07.593Z,99062.39
2023-05-02T11:22:34.720Z,99058.27
2023-05-02T11:25:03.744Z,99046.44
2023-05-02T11:27:31.102Z,99046.92
2023-05-02T11:30:06.756Z,99051.02
2023-05-02T11:32:49.593Z,99053.79
2023-05-02T11:35:20.732Z,99047.09
2023-05-02T11:37:54.958Z,99044.13
2023-05-02T11:40:22.177Z,99038.23
2023-05-02T11:42:49.435Z,99039.45
2023-05-02T11:45:18.966Z,99047.78
2023-05-02T11:47:46.613Z,99036.50
2023-05-02T11:50:33.796Z,99035.19
2023-05-02T11:53:01.736Z,99040.20
2023-05-02T12:00:20.391Z,99023.21
2023-05-02T12:47:51.335Z,98997.59
2023-05-02T12:59:36.388Z,99007.09
2023-05-02T13:06:47.239Z,98991.70
2023-05-02T13:31:32.563Z,98969.98
2023-05-02T14:14:36.319Z,98958.26
2023-05-02T14:39:35.323Z,98942.16
2023-05-02T15:36:04.850Z,98931.48
2023-05-02T16:05:42.017Z,98924.79
2023-05-02T16:26:04.925Z,98907.99
2023-05-02T17:36:17.240Z,98912.31
2023-05-02T18:02:47.769Z,98930.88
2023-05-02T18:05:15.238Z,98931.59
2023-05-02T18:07:45.163Z,98933.24
2023-05-02T18:10:13.328Z,98930.40
2023-05-02T18:13:02.276Z,98931.27
2023-05-02T18:15:32.315Z,98929.10
2023-05-02T18:17:59.490Z,98935.30
2023-05-02T18:20:26.569Z,98934.52
2023-05-02T18:22:57.262Z,98935.64
2023-05-02T18:25:24.151Z,98933.16
2023-05-02T18:27:51.394Z,98936.59
2023-05-02T18:30:19.412Z,98929.48
2023-05-02T18:32:46.663Z,98928.39
2023-05-02T18:35:13.690Z,98923.89
2023-05-02T18:37:41.198Z,98927.38
2023-05-02T18:40:08.797Z,98928.51
2023-05-02T18:42:35.819Z,98926.66
2023-05-02T18:45:05.559Z,98926.73
2023-05-02T18:47:34.384Z,98925.52
2023-05-02T18:50:04.573Z,98928.63
2023-05-02T18:52:31.782Z,98931.31
2023-05-02T18:54:59.463Z,98932.23
